createdAt,value
2018-02-04T00:01:36.567Z,-0.30
2018-02-04T00:04:04.863Z,-0.40
2018-02-04T00:06:33.260Z,-0.30
2018-02-04T00:09:01.587Z,-0.30
2018-02-04T00:11:29.891Z,-0.30
2018-02-04T00:13:58.286Z,-0.30
2018-02-04T00:16:26.586Z,-0.40
2018-02-04T00:18:55.685Z,-0.10
2018-02-04T00:21:24.382Z,-0.10
2018-02-04T00:23:53.798Z,-0.30
2018-02-04T00:26:22.755Z,-0.30
2018-02-04T00:28:51.159Z,0.00
2018-02-04T00:31:21.155Z,0.10
2018-02-04T00:33:50.763Z,0.00
2018-02-04T00:36:19.603Z,0.00
2018-02-04T00:38:48.569Z,0.00
2018-02-04T00:41:17.902Z,0.10
2018-02-04T00:43:47.521Z,-0.10
2018-02-04T00:46:16.994Z,-0.20
2018-02-04T00:48:45.696Z,-0.30
2018-02-04T00:51:14.551Z,-0.30
2018-02-04T00:53:43.666Z,-0.40
2018-02-04T00:56:12.119Z,-0.40
2018-02-04T00:58:40.606Z,-0.50
2018-02-04T01:01:09.220Z,-0.50
2018-02-04T01:03:38.239Z,-0.20
2018-02-04T01:06:06.736Z,-0.10
2018-02-04T01:08:35.626Z,-0.20
2018-02-04T01:11:03.990Z,-0.30
2018-02-04T01:13:32.274Z,-0.30
2018-02-04T01:16:00.630Z,-0.30
2018-02-04T01:18:28.922Z,-0.30
2018-02-04T01:20:57.222Z,-0.30
2018-02-04T01:23:25.790Z,-0.20
2018-02-04T01:25:54.589Z,-0.10
2018-02-04T01:28:23.028Z,0.00
2018-02-04T01:30:52.430Z,-0.20
2018-02-04T01:33:21.356Z,-0.30
2018-02-04T01:35:51.046Z,-0.10
2018-02-04T01:38:19.802Z,-0.10
2018-02-04T01:40:48.739Z,-0.20
2018-02-04T01:43:18.025Z,-0.40
2018-02-04T01:45:46.625Z,-0.40
2018-02-04T01:48:15.886Z,-0.50
2018-02-04T01:50:45.094Z,-0.50
2018-02-04T01:53:13.898Z,-0.50
2018-02-04T01:55:42.413Z,-0.50
2018-02-04T01:58:11.718Z,-0.60
2018-02-04T02:00:40.128Z,-0.70
2018-02-04T02:03:09.174Z,-0.60
2018-02-04T02:05:37.606Z,-0.60
2018-02-04T02:08:06.051Z,-0.60
2018-02-04T02:10:34.454Z,-0.40
2018-02-04T02:13:02.783Z,-0.40
2018-02-04T02:15:31.083Z,-0.50
2018-02-04T02:17:59.416Z,-0.50
2018-02-04T02:20:28.482Z,-0.60
2018-02-04T02:22:56.810Z,-0.60
2018-02-04T02:25:25.286Z,-0.60
2018-02-04T02:27:53.758Z,-0.60
2018-02-04T02:30:23.031Z,-0.80
2018-02-04T02:32:52.069Z,-0.90
2018-02-04T02:35:20.612Z,-1.00
2018-02-04T02:37:50.054Z,-1.00
2018-02-04T02:40:19.122Z,-1.00
2018-02-04T02:42:48.185Z,-1.00
2018-02-04T02:45:18.785Z,-1.00
2018-02-04T02:47:48.211Z,-0.90
2018-02-04T02:50:18.052Z,-0.90
2018-02-04T02:52:46.987Z,-0.90
2018-02-04T02:55:16.207Z,-0.90
2018-02-04T02:57:46.335Z,-1.10
2018-02-04T03:00:15.157Z,-1.00
2018-02-04T03:02:47.770Z,-0.90
2018-02-04T03:05:18.034Z,-0.80
2018-02-04T03:07:47.835Z,-0.80
2018-02-04T03:10:17.363Z,-0.80
2018-02-04T03:12:47.920Z,-0.80
2018-02-04T03:15:16.922Z,-0.80
2018-02-04T03:17:46.330Z,-0.90
2018-02-04T03:20:15.824Z,-1.20
2018-02-04T03:22:45.525Z,-1.20
2018-02-04T03:25:15.268Z,-1.20
2018-02-04T03:27:44.626Z,-1.20
2018-02-04T03:30:13.424Z,-1.30
2018-02-04T03:32:42.331Z,-1.20
2018-02-04T03:35:11.481Z,-1.00
2018-02-04T03:37:39.869Z,-1.10
2018-02-04T03:40:09.682Z,-0.90
2018-02-04T03:42:38.806Z,-0.90
2018-02-04T03:45:07.412Z,-1.00
2018-02-04T03:47:36.634Z,-1.30
2018-02-04T03:50:05.159Z,-1.30
2018-02-04T03:52:33.451Z,-1.50
2018-02-04T03:55:01.754Z,-1.50
2018-02-04T03:57:32.618Z,-1.50
2018-02-04T04:00:00.911Z,-1.60
2018-02-04T04:02:29.199Z,-1.60
2018-02-04T04:04:57.531Z,-1.50
2018-02-04T04:07:25.883Z,-1.50
2018-02-04T04:09:54.950Z,-1.50
2018-02-04T04:12:23.955Z,-1.70
2018-02-04T04:14:53.086Z,-1.80
2018-02-04T04:17:21.888Z,-1.80
2018-02-04T04:19:50.652Z,-1.80
2018-02-04T04:22:19.432Z,-1.60
2018-02-04T04:24:49.312Z,-1.60
2018-02-04T04:27:19.707Z,-1.70
2018-02-04T04:29:49.545Z,-1.50
2018-02-04T04:32:18.546Z,-1.50
2018-02-04T04:34:48.508Z,-1.50
2018-02-04T04:37:17.318Z,-1.50
2018-02-04T04:39:46.662Z,-1.60
2018-02-04T04:42:16.904Z,-1.90
2018-02-04T04:44:47.167Z,-2.00
2018-02-04T04:47:15.866Z,-2.00
2018-02-04T04:49:45.090Z,-1.80
2018-02-04T04:52:13.663Z,-1.90
2018-02-04T04:54:42.506Z,-1.70
2018-02-04T04:57:10.918Z,-1.60
2018-02-04T04:59:39.402Z,-1.90
2018-02-04T05:02:09.190Z,-2.30
2018-02-04T05:04:38.950Z,-2.50
2018-02-04T05:07:07.486Z,-2.50
2018-02-04T05:09:36.834Z,-2.50
2018-02-04T05:12:05.331Z,-2.50
2018-02-04T05:14:33.655Z,-2.40
2018-02-04T05:17:02.726Z,-2.10
2018-02-04T05:19:31.046Z,-2.10
2018-02-04T05:21:59.339Z,-2.20
2018-02-04T05:24:27.631Z,-2.30
2018-02-04T05:26:55.954Z,-2.30
2018-02-04T05:29:24.588Z,-2.50
2018-02-04T05:31:52.935Z,-2.60
2018-02-04T05:34:21.982Z,-2.50
2018-02-04T05:36:51.236Z,-2.40
2018-02-04T05:39:20.730Z,-2.10
2018-02-04T05:41:49.751Z,-2.10
2018-02-04T05:44:19.588Z,-2.20
2018-02-04T05:46:49.764Z,-2.20
2018-02-04T05:49:19.928Z,-2.10
2018-02-04T05:51:48.391Z,-2.10
2018-02-04T05:54:18.189Z,-2.30
2018-02-04T05:56:47.872Z,-2.40
2018-02-04T05:59:17.186Z,-2.20
2018-02-04T06:01:47.164Z,-2.20
2018-02-04T06:04:17.912Z,-2.30
2018-02-04T06:06:46.691Z,-2.40
2018-02-04T06:09:16.138Z,-2.30
2018-02-04T06:11:47.012Z,-2.10
2018-02-04T06:14:15.934Z,-2.10
2018-02-04T06:16:45.741Z,-2.10
2018-02-04T06:19:15.596Z,-2.40
2018-02-04T06:21:44.351Z,-2.40
2018-02-04T06:24:13.326Z,-2.30
2018-02-04T06:26:41.826Z,-2.20
2018-02-04T06:29:10.641Z,-2.40
2018-02-04T06:31:39.499Z,-2.30
2018-02-04T06:34:08.178Z,-2.20
2018-02-04T06:36:36.747Z,-2.30
2018-02-04T06:39:05.378Z,-2.10
2018-02-04T06:41:33.735Z,-2.10
2018-02-04T06:44:02.022Z,-2.10
2018-02-04T06:46:31.083Z,-2.10
2018-02-04T06:48:59.402Z,-2.10
2018-02-04T06:51:27.699Z,-2.10
2018-02-04T06:53:56.055Z,-2.00
2018-02-04T06:56:25.119Z,-1.90
2018-02-04T06:58:53.590Z,-1.90
2018-02-04T07:01:23.147Z,-1.90
2018-02-04T07:03:51.701Z,-1.90
2018-02-04T07:06:21.195Z,-2.00
2018-02-04T07:08:50.013Z,-2.00
2018-02-04T07:11:19.146Z,-2.00
2018-02-04T07:13:48.102Z,-2.10
2018-02-04T07:16:17.800Z,-1.80
2018-02-04T07:18:47.314Z,-1.90
2018-02-04T07:21:16.175Z,-1.80
2018-02-04T07:23:46.294Z,-1.90
2018-02-04T07:26:15.935Z,-1.80
2018-02-04T07:28:46.675Z,-1.70
2018-02-04T07:31:15.801Z,-1.60
2018-02-04T07:33:45.635Z,-1.60
2018-02-04T07:36:14.991Z,-1.60
2018-02-04T07:38:45.260Z,-1.50
2018-02-04T07:41:15.158Z,-1.40
2018-02-04T07:43:44.535Z,-1.30
2018-02-04T07:46:15.436Z,-1.10
2018-02-04T07:48:45.047Z,-1.20
2018-02-04T07:51:15.269Z,-1.10
2018-02-04T07:53:45.780Z,-1.00
2018-02-04T07:56:15.658Z,-1.00
2018-02-04T07:58:45.565Z,-0.80
2018-02-04T08:01:17.217Z,-0.60
2018-02-04T08:03:46.762Z,-0.60
2018-02-04T08:06:17.217Z,-0.40
2018-02-04T08:08:47.410Z,-0.30
2018-02-04T08:11:17.818Z,-0.30
2018-02-04T08:13:48.291Z,-0.30
2018-02-04T08:16:18.808Z,-0.20
2018-02-04T08:18:49.290Z,-0.30
2018-02-04T08:21:18.374Z,-0.20
2018-02-04T08:23:49.179Z,-0.20
2018-02-04T08:26:20.486Z,-0.20
2018-02-04T08:28:49.534Z,-0.20
2018-02-04T08:31:20.948Z,-0.20
2018-02-04T08:33:50.228Z,-0.10
2018-02-04T08:36:21.194Z,0.10
2018-02-04T08:38:51.580Z,0.00
2018-02-04T08:41:21.315Z,0.10
2018-02-04T08:43:52.045Z,0.30
2018-02-04T08:46:22.474Z,0.50
2018-02-04T08:48:51.643Z,0.70
2018-02-04T08:51:21.143Z,0.70
2018-02-04T08:53:51.642Z,0.90
2018-02-04T08:56:22.356Z,0.90
2018-02-04T08:58:51.480Z,1.00
2018-02-04T09:01:22.227Z,1.00
2018-02-04T09:03:52.111Z,1.00
2018-02-04T09:06:22.266Z,0.30
2018-02-04T09:08:51.824Z,0.40
2018-02-04T09:11:20.839Z,0.40
2018-02-04T09:13:52.808Z,0.70
2018-02-04T09:16:23.113Z,0.80
2018-02-04T09:18:51.666Z,1.10
2018-02-04T09:21:22.727Z,1.20
2018-02-04T09:23:52.233Z,1.20
2018-02-04T09:26:23.583Z,1.10
2018-02-04T09:28:54.115Z,1.10
2018-02-04T09:31:23.249Z,1.00
2018-02-04T09:33:55.392Z,0.90
2018-02-04T09:36:25.504Z,1.00
2018-02-04T09:38:53.968Z,1.20
2018-02-04T09:41:22.648Z,1.20
2018-02-04T09:43:52.154Z,1.20
2018-02-04T09:46:21.159Z,1.20
2018-02-04T09:48:51.401Z,0.90
2018-02-04T09:51:20.679Z,0.90
2018-02-04T09:53:49.963Z,0.90
2018-02-04T09:56:19.298Z,1.00
2018-02-04T09:58:49.922Z,1.20
2018-02-04T10:01:19.971Z,1.30
2018-02-04T10:03:51.247Z,1.30
2018-02-04T10:06:20.918Z,1.30
2018-02-04T10:08:50.142Z,1.30
2018-02-04T10:11:20.718Z,1.20
2018-02-04T10:13:51.967Z,1.30
2018-02-04T10:16:21.383Z,1.40
2018-02-04T10:18:50.351Z,1.40
2018-02-04T10:21:21.518Z,1.40
2018-02-04T10:23:51.774Z,1.30
2018-02-04T10:26:24.140Z,1.30
2018-02-04T10:28:53.274Z,1.40
2018-02-04T10:31:22.413Z,1.70
2018-02-04T10:33:54.869Z,1.80
2018-02-04T10:36:24.410Z,1.70
2018-02-04T10:38:54.225Z,1.70
2018-02-04T10:41:24.299Z,1.90
2018-02-04T10:43:54.013Z,1.90
2018-02-04T10:46:25.551Z,1.90
2018-02-04T10:49:00.448Z,2.00
2018-02-04T10:51:34.678Z,1.80
2018-02-04T10:54:03.086Z,1.80
2018-02-04T10:56:31.366Z,2.00
2018-02-04T10:58:59.697Z,2.20
2018-02-04T11:01:28.014Z,2.10
2018-02-04T11:03:56.942Z,2.10
2018-02-04T11:06:26.511Z,2.00
2018-02-04T11:08:55.587Z,2.10
2018-02-04T11:11:25.617Z,2.20
2018-02-04T11:13:55.429Z,2.10
2018-02-04T11:16:24.580Z,2.10
2018-02-04T11:18:54.322Z,1.90
2018-02-04T11:21:25.615Z,2.00
2018-02-04T11:23:57.351Z,2.10
2018-02-04T11:26:26.162Z,2.10
2018-02-04T11:28:56.000Z,2.10
2018-02-04T11:31:26.006Z,2.10
2018-02-04T11:33:55.561Z,2.00
2018-02-04T11:36:25.942Z,1.80
2018-02-04T11:38:55.036Z,1.80
2018-02-04T11:41:23.784Z,2.00
2018-02-04T11:43:53.624Z,1.90
2018-02-04T11:46:22.909Z,1.90
2018-02-04T11:48:52.223Z,1.90
2018-02-04T11:51:21.254Z,2.00
2018-02-04T11:53:51.522Z,2.00
2018-02-04T11:56:21.208Z,1.90
2018-02-04T11:58:52.142Z,1.90
2018-02-04T12:01:22.880Z,1.90
2018-02-04T12:03:52.518Z,1.80
2018-02-04T12:06:23.165Z,1.70
2018-02-04T12:08:52.692Z,1.50
2018-02-04T12:11:21.415Z,1.40
2018-02-04T12:13:50.779Z,1.40
2018-02-04T12:16:21.602Z,1.40
2018-02-04T12:18:51.969Z,1.40
2018-02-04T12:21:23.344Z,1.40
2018-02-04T12:23:52.880Z,1.40
2018-02-04T12:26:22.890Z,1.40
2018-02-04T12:28:52.889Z,1.40
2018-02-04T12:31:22.036Z,1.30
2018-02-04T12:33:50.985Z,1.20
2018-02-04T12:36:20.599Z,1.10
2018-02-04T12:38:50.756Z,1.20
2018-02-04T12:41:20.209Z,1.30
2018-02-04T12:43:50.730Z,1.50
2018-02-04T12:46:21.421Z,1.60
2018-02-04T12:48:51.866Z,1.60
2018-02-04T12:51:22.463Z,1.50
2018-02-04T12:53:54.074Z,1.50
2018-02-04T12:56:25.634Z,1.50
2018-02-04T12:58:54.647Z,1.60
2018-02-04T13:01:24.206Z,1.90
2018-02-04T13:03:54.389Z,1.80
2018-02-04T13:06:23.253Z,1.80
2018-02-04T13:08:55.140Z,1.80
2018-02-04T13:11:24.469Z,1.80
2018-02-04T13:13:53.920Z,1.80
2018-02-04T13:16:23.442Z,1.90
2018-02-04T13:18:53.216Z,1.70
2018-02-04T13:21:22.178Z,1.60
2018-02-04T13:23:52.164Z,1.40
2018-02-04T13:26:22.534Z,1.60
2018-02-04T13:28:52.199Z,1.60
2018-02-04T13:31:22.609Z,1.60
2018-02-04T13:33:52.520Z,1.60
2018-02-04T13:36:23.177Z,1.50
2018-02-04T13:38:52.376Z,1.50
2018-02-04T13:41:21.827Z,1.60
2018-02-04T13:43:52.411Z,1.50
2018-02-04T13:46:21.620Z,1.50
2018-02-04T13:48:53.090Z,1.60
2018-02-04T13:51:23.741Z,1.80
2018-02-04T13:53:52.733Z,1.80
2018-02-04T13:56:22.739Z,1.70
2018-02-04T13:58:51.655Z,1.70
2018-02-04T14:01:21.391Z,1.50
2018-02-04T14:03:50.185Z,1.50
2018-02-04T14:06:19.841Z,1.40
2018-02-04T14:08:50.210Z,1.30
2018-02-04T14:11:20.617Z,1.30
2018-02-04T14:13:49.591Z,1.20
2018-02-04T14:16:19.411Z,1.20
2018-02-04T14:18:50.198Z,1.20
2018-02-04T14:21:19.282Z,1.20
2018-02-04T14:23:48.737Z,1.20
2018-02-04T14:26:19.419Z,1.20
2018-02-04T14:28:49.214Z,1.20
2018-02-04T14:31:19.214Z,1.00
2018-02-04T14:33:50.403Z,1.00
2018-02-04T14:36:19.940Z,1.10
2018-02-04T14:38:50.008Z,1.10
2018-02-04T14:41:21.176Z,1.00
2018-02-04T14:43:51.591Z,1.00
2018-02-04T14:46:20.662Z,1.10
2018-02-04T14:48:51.083Z,1.20
2018-02-04T14:51:22.213Z,1.30
2018-02-04T14:53:51.622Z,1.20
2018-02-04T14:56:22.067Z,1.20
2018-02-04T14:58:52.627Z,1.30
2018-02-04T15:01:23.455Z,1.30
2018-02-04T15:03:52.930Z,1.30
2018-02-04T15:06:22.128Z,1.20
2018-02-04T15:08:51.772Z,1.10
2018-02-04T15:11:21.810Z,1.00
2018-02-04T15:13:51.477Z,1.20
2018-02-04T15:16:20.582Z,1.10
2018-02-04T15:18:52.246Z,1.20
2018-02-04T15:21:22.120Z,1.20
2018-02-04T15:23:51.146Z,1.30
2018-02-04T15:26:20.158Z,1.20
2018-02-04T15:28:50.159Z,1.30
2018-02-04T15:31:19.630Z,1.20
2018-02-04T15:33:49.585Z,1.30
2018-02-04T15:36:19.519Z,1.30
2018-02-04T15:38:48.323Z,1.30
2018-02-04T15:41:21.540Z,1.20
2018-02-04T15:43:51.785Z,1.20
2018-02-04T15:46:20.583Z,1.40
2018-02-04T15:48:49.992Z,1.40
2018-02-04T15:51:19.488Z,1.40
2018-02-04T15:53:49.267Z,1.20
2018-02-04T15:56:22.879Z,1.20
2018-02-04T15:58:52.827Z,1.20
2018-02-04T16:01:22.627Z,1.30
2018-02-04T16:03:55.211Z,1.30
2018-02-04T16:06:24.648Z,1.20
2018-02-04T16:08:54.247Z,1.20
2018-02-04T16:11:23.543Z,1.30
2018-02-04T16:13:52.420Z,1.30
2018-02-04T16:16:21.491Z,1.30
2018-02-04T16:18:50.246Z,1.30
2018-02-04T16:21:20.643Z,1.20
2018-02-04T16:23:50.573Z,1.20
2018-02-04T16:26:21.463Z,1.20
2018-02-04T16:28:50.472Z,1.20
2018-02-04T16:31:20.931Z,1.20
2018-02-04T16:33:51.262Z,1.20
2018-02-04T16:36:21.316Z,1.10
2018-02-04T16:38:51.048Z,1.10
2018-02-04T16:41:20.082Z,1.10
2018-02-04T16:43:50.412Z,1.10
2018-02-04T16:46:19.862Z,1.10
2018-02-04T16:48:50.050Z,1.10
2018-02-04T16:51:20.050Z,1.10
2018-02-04T16:53:49.260Z,1.10
2018-02-04T16:56:18.906Z,1.10
2018-02-04T16:58:48.034Z,1.10
2018-02-04T17:01:18.437Z,1.10
2018-02-04T17:03:47.997Z,1.10
2018-02-04T17:06:17.458Z,1.00
2018-02-04T17:08:49.476Z,1.00
2018-02-04T17:11:17.993Z,1.00
2018-02-04T17:13:48.012Z,1.10
2018-02-04T17:16:18.223Z,1.10
2018-02-04T17:18:48.066Z,1.10
2018-02-04T17:21:18.768Z,1.10
2018-02-04T17:23:48.438Z,1.10
2018-02-04T17:26:19.381Z,1.20
2018-02-04T17:28:48.033Z,1.20
2018-02-04T17:31:17.480Z,1.10
2018-02-04T17:33:48.347Z,1.10
2018-02-04T17:36:18.546Z,1.10
2018-02-04T17:38:49.050Z,1.10
2018-02-04T17:41:20.635Z,1.00
2018-02-04T17:43:49.614Z,1.00
2018-02-04T17:46:18.141Z,0.90
2018-02-04T17:48:48.263Z,1.00
2018-02-04T17:51:18.650Z,1.00
2018-02-04T17:53:48.165Z,1.00
2018-02-04T17:56:17.731Z,1.10
2018-02-04T17:58:47.409Z,1.10
2018-02-04T18:01:18.169Z,1.10
2018-02-04T18:03:47.030Z,1.20
2018-02-04T18:06:17.590Z,1.20
2018-02-04T18:08:48.592Z,1.20
2018-02-04T18:11:20.054Z,1.10
2018-02-04T18:13:49.555Z,1.10
2018-02-04T18:16:19.950Z,1.20
2018-02-04T18:18:49.086Z,1.20
2018-02-04T18:21:18.351Z,1.10
2018-02-04T18:23:48.321Z,1.00
2018-02-04T18:26:19.516Z,1.00
2018-02-04T18:28:48.245Z,1.00
2018-02-04T18:31:17.497Z,1.00
2018-02-04T18:33:46.527Z,1.10
2018-02-04T18:36:15.669Z,1.10
2018-02-04T18:38:45.926Z,1.10
2018-02-04T18:41:15.150Z,1.10
2018-02-04T18:43:45.029Z,1.10
2018-02-04T18:46:14.353Z,1.10
2018-02-04T18:48:43.298Z,1.20
2018-02-04T18:51:13.744Z,1.20
2018-02-04T18:53:43.179Z,1.20
2018-02-04T18:56:11.844Z,1.20
2018-02-04T18:58:40.958Z,1.20
2018-02-04T19:01:09.846Z,1.10
2018-02-04T19:03:38.362Z,1.20
2018-02-04T19:06:06.730Z,1.20
2018-02-04T19:08:35.098Z,1.20
2018-02-04T19:11:03.398Z,1.20
2018-02-04T19:13:31.808Z,1.20
2018-02-04T19:16:00.125Z,1.20
2018-02-04T19:18:29.971Z,1.20
2018-02-04T19:20:59.036Z,1.20
2018-02-04T19:23:27.362Z,1.20
2018-02-04T19:25:55.759Z,1.20
2018-02-04T19:28:24.535Z,1.20
2018-02-04T19:30:54.178Z,1.20
2018-02-04T19:33:22.646Z,1.20
2018-02-04T19:35:51.663Z,1.30
2018-02-04T19:38:20.774Z,1.20
2018-02-04T19:40:50.216Z,1.20
2018-02-04T19:43:19.070Z,1.20
2018-02-04T19:45:47.629Z,1.20
2018-02-04T19:48:18.205Z,1.00
2018-02-04T19:50:46.979Z,1.00
2018-02-04T19:53:15.767Z,1.00
2018-02-04T19:55:46.010Z,0.90
2018-02-04T19:58:15.928Z,0.90
2018-02-04T20:00:44.787Z,0.90
2018-02-04T20:03:15.039Z,0.90
2018-02-04T20:05:45.013Z,0.90
2018-02-04T20:08:14.955Z,0.90
2018-02-04T20:10:44.819Z,0.90
2018-02-04T20:13:14.326Z,0.90
2018-02-04T20:15:46.545Z,1.00
2018-02-04T20:18:16.364Z,1.00
2018-02-04T20:20:46.403Z,1.00
2018-02-04T20:23:16.694Z,1.00
2018-02-04T20:25:47.178Z,0.90
2018-02-04T20:28:17.870Z,0.80
2018-02-04T20:30:47.805Z,0.80
2018-02-04T20:33:36.086Z,0.80
2018-02-04T20:36:04.482Z,0.70
2018-02-04T20:38:32.859Z,0.60
2018-02-04T20:41:01.198Z,0.60
2018-02-04T20:43:29.498Z,0.60
2018-02-04T20:45:57.831Z,0.50
2018-02-04T20:48:26.135Z,0.40
2018-02-04T20:50:54.513Z,0.50
2018-02-04T20:53:22.826Z,0.60
2018-02-04T20:55:51.254Z,0.60
2018-02-04T20:58:20.476Z,0.50
2018-02-04T21:00:48.947Z,0.50
2018-02-04T21:03:17.415Z,0.50
2018-02-04T21:05:46.717Z,0.50
2018-02-04T21:08:15.324Z,0.50
2018-02-04T21:10:44.585Z,0.50
2018-02-04T21:13:12.991Z,0.40
2018-02-04T21:15:41.378Z,0.40
2018-02-04T21:18:09.670Z,0.40
2018-02-04T21:20:38.024Z,0.50
2018-02-04T21:23:06.772Z,0.50
2018-02-04T21:25:35.711Z,0.60
2018-02-04T21:28:04.878Z,0.60
2018-02-04T21:30:33.462Z,0.60
2018-02-04T21:33:01.891Z,0.60
2018-02-04T21:35:30.333Z,0.60
2018-02-04T21:37:58.619Z,0.60
2018-02-04T21:40:26.974Z,0.60
2018-02-04T21:42:55.463Z,0.60
2018-02-04T21:45:23.839Z,0.50
2018-02-04T21:47:54.623Z,0.80
2018-02-04T21:50:23.199Z,0.70
2018-02-04T21:52:51.776Z,0.60
2018-02-04T21:55:20.223Z,0.70
2018-02-04T21:57:48.625Z,0.60
2018-02-04T22:00:17.063Z,0.60
2018-02-04T22:02:46.211Z,0.50
2018-02-04T22:05:15.589Z,0.50
2018-02-04T22:07:44.785Z,0.60
2018-02-04T22:10:13.380Z,0.60
2018-02-04T22:12:41.857Z,0.60
2018-02-04T22:15:11.008Z,0.70
2018-02-04T22:17:39.506Z,0.70
2018-02-04T22:20:07.902Z,0.80
2018-02-04T22:22:37.178Z,0.80
2018-02-04T22:25:05.522Z,0.70
2018-02-04T22:27:34.872Z,1.10
2018-02-04T22:30:03.378Z,1.10
2018-02-04T22:32:32.675Z,1.20
2018-02-04T22:35:00.950Z,1.30
2018-02-04T22:37:29.319Z,1.40
2018-02-04T22:39:57.658Z,1.40
2018-02-04T22:42:25.977Z,1.20
2018-02-04T22:44:54.375Z,1.10
2018-02-04T22:47:22.756Z,1.10
2018-02-04T22:49:52.220Z,1.10
2018-02-04T22:52:21.359Z,1.00
2018-02-04T22:54:50.034Z,1.00
2018-02-04T22:57:18.383Z,1.00
2018-02-04T22:59:46.784Z,1.20
2018-02-04T23:02:15.389Z,1.20
2018-02-04T23:04:43.769Z,1.10
2018-02-04T23:07:12.179Z,0.90
2018-02-04T23:09:40.582Z,0.90
2018-02-04T23:12:09.879Z,0.90
2018-02-04T23:14:39.150Z,1.10
2018-02-04T23:17:08.383Z,1.10
2018-02-04T23:19:36.683Z,1.10
2018-02-04T23:22:05.229Z,1.20
2018-02-04T23:24:33.625Z,1.10
2018-02-04T23:27:02.124Z,1.20
2018-02-04T23:29:30.479Z,1.20
2018-02-04T23:31:59.030Z,1.10
2018-02-04T23:34:27.337Z,0.90
2018-02-04T23:36:57.816Z,1.00
2018-02-04T23:39:26.300Z,0.90
2018-02-04T23:41:54.734Z,1.00
2018-02-04T23:44:23.035Z,1.10
2018-02-04T23:46:51.342Z,1.00
2018-02-04T23:49:19.661Z,1.00
2018-02-04T23:51:48.773Z,1.30
2018-02-04T23:54:17.126Z,1.30
2018-02-04T23:56:45.482Z,1.40
2018-02-04T23:59:14.776Z,1.20
